Three Forks, MT (59752)

8:23 AM MDT on September 20, 2014 (GMT -0600)
Bridgewater Ranch, West Stagecoach Trail, Amsterdam, Montana | Change Station
CLOSE
Current Station
Personal Weather Station
Location: Manhattan, MT
Elevation: 4450 ft
Nearby Weather Stations

Elev 4450 ft 45.79 °N, 111.36 °W | Updated 8 seconds ago

Clear
Clear
45.5 °F
Feels Like 46 °F
N
0.0
Wind Variable Wind from SSW
Gusts 6.0 mph

Today
High -- | Low -- °F
--% Chance of Precip.
Yesterday
High -- | Low -- °F
Precip. -- in
7:10 AM 7:27 PM
Waning Crescent, 12% visible
Pressure 30.27 in
Visibility 10.0 miles
Clouds Clear
Windchill 46 °F
Dew Point 46 °F
Humidity 100%
Rainfall 0.00 in
Snow Depth 0 in , 0 in , 1 in
UV 0 out of 12
Pollen 5.70 out of 12
Air Quality Not available.
Flu Activity Not available.
METAR KBZN 201356Z 17003KT 10SM CLR 05/04 A3029 RMK AO2 SLP250 T00500039

More Conditions Fewer Conditions

Pressure 30.27 in
Visibility 10.0 miles
Clouds Clear
Windchill 46 °F
Dew Point 46 °F
Humidity 100%
Rainfall 0.00 in
Snow Depth 0 in , 0 in , 1 in
UV 0 out of 12
Pollen 5.70 out of 12
Air Quality Not available.
Flu Activity Not available.
METAR KBZN 201356Z 17003KT 10SM CLR 05/04 A3029 RMK AO2 SLP250 T00500039

More Conditions Fewer Conditions

10-Day Weather Forecast

Almanac

Astronomy

Sep. 20, 2014 Rise Set
Actual Time 7:10 AM MDT 7:27 PM MDT
Civil Twilight 6:41 AM MDT 7:57 PM MDT
Nautical Twilight 6:05 AM MDT 8:32 PM MDT
Astronomical Twilight 5:29 AM MDT 9:08 PM MDT
Moon 3:44 AM MDT 5:40 PM MDT
Length of Visible Light 13h 16m
Length of Day
12h 16m
Tomorrow will be 3m 12s shorter.
Waning Crescent, 12% of the Moon is Illuminated
Today
Waning Crescent
Sep 24
New
Oct 1
First Quarter
Oct 8
Full
Oct 15
Last Quarter

Today's Extremes

State Highs State Lows

Community

WunderPhotos

Upload Photos

1,754,871 photos uploaded!

Nearby

Snow Depth

Station Depth Elevation
Deadman Creek 0 in 6450 ft
Warm Springs 0 in 7800 ft
Badger Pass 1 in 6900 ft
Tizer Basin 0 in 6840 ft
Stahl Peak 0 in 6030 ft

Earthquake Activity

City Distance Mag. Time & Date
No recent earthquake activity has been reported nearby.
Minimum magnitude displayed is 2.5.

Coastal Water Temperatures

Place Temperature
No Stations Reporting

Nearby Weather Stations